sensor_id;sensor_type;location;lat;lon;timestamp;pressure;altitude;pressure_sealevel;temperature;humidity
44734;BME280;30462;52.446;-1.930;2023-03-04T00:00:19;101770.6563;;;;
44734;BME280;30462;52.446;-1.930;2023-03-04T00:01:18;101766.2227;;;;
44734;BME280;30462;52.446;-1.930;2023-03-04T00:02:18;101771.0273;;;;
44734;BME280;30462;52.446;-1.930;2023-03-04T00:03:18;101771.4766;;;;
44734;BME280;30462;52.446;-1.930;2023-03-04T00:04:18;101775.543;;;;
44734;BME280;30462;52.446;-1.930;2023-03-04T00:05:18;101770.0977;;;;
44734;BME280;30462;52.446;-1.930;2023-03-04T00:06:18;101772.5703;;;;
44734;BME280;30462;52.446;-1.930;2023-03-04T00:07:18;101773.7578;;;;
44734;BME280;30462;52.446;-1.930;2023-03-04T00:08:18;101775.5078;;;;
44734;BME280;30462;52.446;-1.930;2023-03-04T00:09:18;101773.7578;;;;
44734;BME280;30462;52.446;-1.930;2023-03-04T00:10:18;101772.0859;;;;
44734;BME280;30462;52.446;-1.930;2023-03-04T00:11:18;101769.8477;;;;
44734;BME280;30462;52.446;-1.930;2023-03-04T00:12:18;101770.6211;;;;
44734;BME280;30462;52.446;-1.930;2023-03-04T00:13:18;101770.1367;;;;
44734;BME280;30462;52.446;-1.930;2023-03-04T00:14:18;101769.9297;;;;
44734;BME280;30462;52.446;-1.930;2023-03-04T00:15:17;101768.5469;;;;
44734;BME280;30462;52.446;-1.930;2023-03-04T00:16:17;101770.8633;;;;
44734;BME280;30462;52.446;-1.930;2023-03-04T00:17:17;101775.7891;;;;
44734;BME280;30462;52.446;-1.930;2023-03-04T00:18:18;101769.4375;;;;
44734;BME280;30462;52.446;-1.930;2023-03-04T00:19:18;101768.5898;;;;
44734;BME280;30462;52.446;-1.930;2023-03-04T00:20:18;101766.7539;;;;
44734;BME280;30462;52.446;-1.930;2023-03-04T00:21:18;101769.1172;;;;
44734;BME280;30462;52.446;-1.930;2023-03-04T00:22:18;101768.1016;;;;
44734;BME280;30462;52.446;-1.930;2023-03-04T00:23:17;101766.5977;;;;
44734;BME280;30462;52.446;-1.930;2023-03-04T00:24:18;101767.6094;;;;
44734;BME280;30462;52.446;-1.930;2023-03-04T00:25:18;101768.7539;;;;
44734;BME280;30462;52.446;-1.930;2023-03-04T00:26:18;101768.3477;;;;
44734;BME280;30462;52.446;-1.930;2023-03-04T00:27:18;101767.0859;;;;
44734;BME280;30462;52.446;-1.930;2023-03-04T00:28:18;101773.4258;;;;
44734;BME280;30462;52.446;-1.930;2023-03-04T00:29:18;101771.6367;;;;
44734;BME280;30462;52.446;-1.930;2023-03-04T00:30:18;101770.6211;;;;
44734;BME280;30462;52.446;-1.930;2023-03-04T00:31:18;101770.9492;;;;
44734;BME280;30462;52.446;-1.930;2023-03-04T00:32:18;101770.5859;;;;
44734;BME280;30462;52.446;-1.930;2023-03-04T00:33:18;101773.3047;;;;
44734;BME280;30462;52.446;-1.930;2023-03-04T00:34:18;101775.3828;;;;
44734;BME280;30462;52.446;-1.930;2023-03-04T00:35:18;101774.3633;;;;
44734;BME280;30462;52.446;-1.930;2023-03-04T00:36:18;101770.9453;;;;
44734;BME280;30462;52.446;-1.930;2023-03-04T00:37:18;101772.8594;;;;
44734;BME280;30462;52.446;-1.930;2023-03-04T00:38:18;101772.9414;;;;
44734;BME280;30462;52.446;-1.930;2023-03-04T00:39:18;101775.2969;;;;
44734;BME280;30462;52.446;-1.930;2023-03-04T00:40:18;101773.0195;;;;
44734;BME280;30462;52.446;-1.930;2023-03-04T00:41:18;101773.3477;;;;
44734;BME280;30462;52.446;-1.930;2023-03-04T00:42:18;101777.1289;;;;
44734;BME280;30462;52.446;-1.930;2023-03-04T00:43:18;101777.207;;;;
44734;BME280;30462;52.446;-1.930;2023-03-04T00:44:18;101776.5547;;;;
44734;BME280;30462;52.446;-1.930;2023-03-04T00:45:18;101774.3203;;;;
44734;BME280;30462;52.446;-1.930;2023-03-04T00:46:18;101780.3047;;;;
44734;BME280;30462;52.446;-1.930;2023-03-04T00:47:18;101778.9609;;;;
44734;BME280;30462;52.446;-1.930;2023-03-04T00:48:18;101779.2852;;;;
44734;BME280;30462;52.446;-1.930;2023-03-04T00:49:18;101774.2031;;;;
44734;BME280;30462;52.446;-1.930;2023-03-04T00:50:18;101777.9375;;;;
44734;BME280;30462;52.446;-1.930;2023-03-04T00:51:18;101779.4453;;;;
44734;BME280;30462;52.446;-1.930;2023-03-04T00:52:18;101775.7461;;;;
44734;BME280;30462;52.446;-1.930;2023-03-04T00:53:18;101778.832;;;;
44734;BME280;30462;52.446;-1.930;2023-03-04T00:54:18;101773.9961;;;;
44734;BME280;30462;52.446;-1.930;2023-03-04T00:55:18;101780.832;;;;
44734;BME280;30462;52.446;-1.930;2023-03-04T00:56:18;101781.2344;;;;
44734;BME280;30462;52.446;-1.930;2023-03-04T00:57:17;101781.1953;;;;
44734;BME280;30462;52.446;-1.930;2023-03-04T00:58:18;101785.1797;;;;
44734;BME280;30462;52.446;-1.930;2023-03-04T00:59:18;101780.3398;;;;
44734;BME280;30462;52.446;-1.930;2023-03-04T01:00:18;101782.5352;;;;
44734;BME280;30462;52.446;-1.930;2023-03-04T01:01:18;101778.3477;;;;
44734;BME280;30462;52.446;-1.930;2023-03-04T01:02:18;101782.7813;;;;
44734;BME280;30462;52.446;-1.930;2023-03-04T01:03:18;101780.4219;;;;
44734;BME280;30462;52.446;-1.930;2023-03-04T01:04:18;101781.8828;;;;
44734;BME280;30462;52.446;-1.930;2023-03-04T01:05:18;101781.6406;;;;
44734;BME280;30462;52.446;-1.930;2023-03-04T01:06:18;101778.957;;;;
44734;BME280;30462;52.446;-1.930;2023-03-04T01:07:18;101777.293;;;;
44734;BME280;30462;52.446;-1.930;2023-03-04T01:08:18;101778.3125;;;;
44734;BME280;30462;52.446;-1.930;2023-03-04T01:09:18;101776.4375;;;;
44734;BME280;30462;52.446;-1.930;2023-03-04T01:10:18;101775.8711;;;;
44734;BME280;30462;52.446;-1.930;2023-03-04T01:11:17;101771.5156;;;;
44734;BME280;30462;52.446;-1.930;2023-03-04T01:12:18;101769.3633;;;;
44734;BME280;30462;52.446;-1.930;2023-03-04T01:13:18;101767.25;;;;
44734;BME280;30462;52.446;-1.930;2023-03-04T01:14:18;101766.3906;;;;
44734;BME280;30462;52.446;-1.930;2023-03-04T01:15:18;101767.3672;;;;
44734;BME280;30462;52.446;-1.930;2023-03-04T01:16:18;101763.3789;;;;
44734;BME280;30462;52.446;-1.930;2023-03-04T01:17:18;101767;;;;
44734;BME280;30462;52.446;-1.930;2023-03-04T01:18:17;101765.2539;;;;
44734;BME280;30462;52.446;-1.930;2023-03-04T01:19:17;101761.3086;;;;
44734;BME280;30462;52.446;-1.930;2023-03-04T01:20:18;101765.7773;;;;
44734;BME280;30462;52.446;-1.930;2023-03-04T01:21:18;101767.5703;;;;
44734;BME280;30462;52.446;-1.930;2023-03-04T01:22:18;101766.8789;;;;
44734;BME280;30462;52.446;-1.930;2023-03-04T01:23:18;101763.5859;;;;
44734;BME280;30462;52.446;-1.930;2023-03-04T01:24:17;101760.8203;;;;
44734;BME280;30462;52.446;-1.930;2023-03-04T01:25:17;101764.8047;;;;
44734;BME280;30462;52.446;-1.930;2023-03-04T01:26:17;101758.4219;;;;
44734;BME280;30462;52.446;-1.930;2023-03-04T01:27:17;101762.7734;;;;
44734;BME280;30462;52.446;-1.930;2023-03-04T01:28:18;101760.7422;;;;
44734;BME280;30462;52.446;-1.930;2023-03-04T01:29:18;101761.5117;;;;
44734;BME280;30462;52.446;-1.930;2023-03-04T01:30:18;101759.8477;;;;
44734;BME280;30462;52.446;-1.930;2023-03-04T01:31:18;101760.3359;;;;
44734;BME280;30462;52.446;-1.930;2023-03-04T01:32:18;101753.75;;;;
44734;BME280;30462;52.446;-1.930;2023-03-04T01:33:17;101756.5156;;;;
44734;BME280;30462;52.446;-1.930;2023-03-04T01:34:18;101760.9063;;;;
44734;BME280;30462;52.446;-1.930;2023-03-04T01:35:18;101753.668;;;;
44734;BME280;30462;52.446;-1.930;2023-03-04T01:36:18;101754.2773;;;;
44734;BME280;30462;52.446;-1.930;2023-03-04T01:37:18;101750.9023;;;;
44734;BME280;30462;52.446;-1.930;2023-03-04T01:38:18;101752.2813;;;;
44734;BME280;30462;52.446;-1.930;2023-03-04T01:39:18;101749.1094;;;;
44734;BME280;30462;52.446;-1.930;2023-03-04T01:40:18;101751.0234;;;;
44734;BME280;30462;52.446;-1.930;2023-03-04T01:41:20;101750.2539;;;;
44734;BME280;30462;52.446;-1.930;2023-03-04T01:42:20;101745.3711;;;;
44734;BME280;30462;52.446;-1.930;2023-03-04T01:43:18;101748.0117;;;;
44734;BME280;30462;52.446;-1.930;2023-03-04T01:44:18;101749.9258;;;;
44734;BME280;30462;52.446;-1.930;2023-03-04T01:45:18;101743.0586;;;;
44734;BME280;30462;52.446;-1.930;2023-03-04T01:46:17;101744.5586;;;;
44734;BME280;30462;52.446;-1.930;2023-03-04T01:47:18;101748.7461;;;;
44734;BME280;30462;52.446;-1.930;2023-03-04T01:48:19;101747.3281;;;;
44734;BME280;30462;52.446;-1.930;2023-03-04T01:49:18;101745.043;;;;
44734;BME280;30462;52.446;-1.930;2023-03-04T01:50:23;101740.3711;;;;
44734;BME280;30462;52.446;-1.930;2023-03-04T01:51:18;101742;;;;
44734;BME280;30462;52.446;-1.930;2023-03-04T01:52:18;101739.7617;;;;
44734;BME280;30462;52.446;-1.930;2023-03-04T01:53:19;101734.4375;;;;
44734;BME280;30462;52.446;-1.930;2023-03-04T01:54:19;101738.9492;;;;
44734;BME280;30462;52.446;-1.930;2023-03-04T01:55:18;101741.6719;;;;
44734;BME280;30462;52.446;-1.930;2023-03-04T01:56:21;101739.3984;;;;
44734;BME280;30462;52.446;-1.930;2023-03-04T01:57:21;101738.7813;;;;
44734;BME280;30462;52.446;-1.930;2023-03-04T01:58:18;101741.668;;;;
44734;BME280;30462;52.446;-1.930;2023-03-04T01:59:21;101739.0313;;;;
44734;BME280;30462;52.446;-1.930;2023-03-04T02:01:18;101737.4766;;;;
44734;BME280;30462;52.446;-1.930;2023-03-04T02:02:17;101738.7422;;;;
44734;BME280;30462;52.446;-1.930;2023-03-04T02:03:18;101739.9609;;;;
44734;BME280;30462;52.446;-1.930;2023-03-04T02:04:18;101736.3828;;;;
44734;BME280;30462;52.446;-1.930;2023-03-04T02:05:18;101742.1992;;;;
44734;BME280;30462;52.446;-1.930;2023-03-04T02:06:18;101740.2852;;;;
44734;BME280;30462;52.446;-1.930;2023-03-04T02:07:17;101733.7422;;;;
44734;BME280;30462;52.446;-1.930;2023-03-04T02:08:18;101732.0391;;;;
44734;BME280;30462;52.446;-1.930;2023-03-04T02:09:18;101733.6992;;;;
44734;BME280;30462;52.446;-1.930;2023-03-04T02:10:18;101732.1172;;;;
44734;BME280;30462;52.446;-1.930;2023-03-04T02:11:18;101730.6523;;;;
44734;BME280;30462;52.446;-1.930;2023-03-04T02:12:18;101730.5313;;;;
44734;BME280;30462;52.446;-1.930;2023-03-04T02:13:18;101737.7266;;;;
44734;BME280;30462;52.446;-1.930;2023-03-04T02:14:19;101731.1758;;;;
44734;BME280;30462;52.446;-1.930;2023-03-04T02:15:18;101729.5547;;;;
44734;BME280;30462;52.446;-1.930;2023-03-04T02:16:19;101733.8203;;;;
44734;BME280;30462;52.446;-1.930;2023-03-04T02:18:19;101733.0117;;;;
44734;BME280;30462;52.446;-1.930;2023-03-04T02:19:19;101733.4531;;;;
44734;BME280;30462;52.446;-1.930;2023-03-04T02:21:22;101729.5586;;;;
44734;BME280;30462;52.446;-1.930;2023-03-04T02:22:18;101729.5156;;;;
44734;BME280;30462;52.446;-1.930;2023-03-04T02:23:19;101728.7422;;;;
44734;BME280;30462;52.446;-1.930;2023-03-04T02:24:21;101730.0391;;;;
44734;BME280;30462;52.446;-1.930;2023-03-04T02:25:20;101727.3984;;;;
44734;BME280;30462;52.446;-1.930;2023-03-04T02:26:18;101725.8984;;;;
44734;BME280;30462;52.446;-1.930;2023-03-04T02:27:18;101723.6641;;;;
44734;BME280;30462;52.446;-1.930;2023-03-04T02:28:18;101726.0664;;;;
44734;BME280;30462;52.446;-1.930;2023-03-04T02:29:18;101723.1328;;;;
44734;BME280;30462;52.446;-1.930;2023-03-04T02:30:19;101725.4102;;;;
44734;BME280;30462;52.446;-1.930;2023-03-04T02:32:18;101728.9492;;;;
44734;BME280;30462;52.446;-1.930;2023-03-04T02:33:18;101726.1836;;;;
44734;BME280;30462;52.446;-1.930;2023-03-04T02:34:19;101727.1602;;;;
44734;BME280;30462;52.446;-1.930;2023-03-04T02:35:19;101728.0938;;;;
44734;BME280;30462;52.446;-1.930;2023-03-04T02:36:18;101729.1484;;;;
44734;BME280;30462;52.446;-1.930;2023-03-04T02:37:18;101729.6367;;;;
44734;BME280;30462;52.446;-1.930;2023-03-04T02:38:18;101729.7148;;;;
44734;BME280;30462;52.446;-1.930;2023-03-04T02:40:22;101729.7617;;;;
44734;BME280;30462;52.446;-1.930;2023-03-04T02:41:19;101733.332;;;;
44734;BME280;30462;52.446;-1.930;2023-03-04T02:42:18;101727.5977;;;;
44734;BME280;30462;52.446;-1.930;2023-03-04T02:43:18;101726.9922;;;;
44734;BME280;30462;52.446;-1.930;2023-03-04T02:44:21;101729.0664;;;;
44734;BME280;30462;52.446;-1.930;2023-03-04T02:46:18;101732.4336;;;;
44734;BME280;30462;52.446;-1.930;2023-03-04T02:47:18;101730.1563;;;;
44734;BME280;30462;52.446;-1.930;2023-03-04T02:48:18;101723.5313;;;;
44734;BME280;30462;52.446;-1.930;2023-03-04T02:49:18;101726.8711;;;;
44734;BME280;30462;52.446;-1.930;2023-03-04T02:50:18;101728.582;;;;
44734;BME280;30462;52.446;-1.930;2023-03-04T02:51:18;101730.2031;;;;
44734;BME280;30462;52.446;-1.930;2023-03-04T02:52:19;101725.2461;;;;
44734;BME280;30462;52.446;-1.930;2023-03-04T02:53:18;101728.1328;;;;
44734;BME280;30462;52.446;-1.930;2023-03-04T02:54:19;101726.6328;;;;
44734;BME280;30462;52.446;-1.930;2023-03-04T02:55:17;101726.2617;;;;
44734;BME280;30462;52.446;-1.930;2023-03-04T02:56:18;101722.6875;;;;
44734;BME280;30462;52.446;-1.930;2023-03-04T02:57:18;101722.2383;;;;
44734;BME280;30462;52.446;-1.930;2023-03-04T02:58:18;101722.7305;;;;
44734;BME280;30462;52.446;-1.930;2023-03-04T02:59:19;101722.2734;;;;
44734;BME280;30462;52.446;-1.930;2023-03-04T03:00:19;101718.457;;;;
44734;BME280;30462;52.446;-1.930;2023-03-04T03:01:18;101720.3242;;;;
44734;BME280;30462;52.446;-1.930;2023-03-04T03:02:18;101719.957;;;;
44734;BME280;30462;52.446;-1.930;2023-03-04T03:03:18;101716.375;;;;
44734;BME280;30462;52.446;-1.930;2023-03-04T03:04:19;101715.0781;;;;
44734;BME280;30462;52.446;-1.930;2023-03-04T03:05:18;101712.9297;;;;
44734;BME280;30462;52.446;-1.930;2023-03-04T03:06:18;101710.4102;;;;
44734;BME280;30462;52.446;-1.930;2023-03-04T03:07:18;101712.6016;;;;
44734;BME280;30462;52.446;-1.930;2023-03-04T03:08:18;101713.7461;;;;
44734;BME280;30462;52.446;-1.930;2023-03-04T03:09:18;101709.9609;;;;
44734;BME280;30462;52.446;-1.930;2023-03-04T03:10:18;101709.6367;;;;
44734;BME280;30462;52.446;-1.930;2023-03-04T03:11:18;101710.7773;;;;
44734;BME280;30462;52.446;-1.930;2023-03-04T03:12:18;101713.2539;;;;
44734;BME280;30462;52.446;-1.930;2023-03-04T03:13:18;101708.2148;;;;
44734;BME280;30462;52.446;-1.930;2023-03-04T03:14:17;101705.0039;;;;
44734;BME280;30462;52.446;-1.930;2023-03-04T03:15:18;101704.2695;;;;
44734;BME280;30462;52.446;-1.930;2023-03-04T03:16:18;101705.8164;;;;
44734;BME280;30462;52.446;-1.930;2023-03-04T03:17:18;101706.9961;;;;
44734;BME280;30462;52.446;-1.930;2023-03-04T03:18:18;101706.2617;;;;
44734;BME280;30462;52.446;-1.930;2023-03-04T03:19:17;101701.7109;;;;
44734;BME280;30462;52.446;-1.930;2023-03-04T03:20:18;101706.6328;;;;
44734;BME280;30462;52.446;-1.930;2023-03-04T03:21:18;101705.4023;;;;
44734;BME280;30462;52.446;-1.930;2023-03-04T03:22:18;101705.1602;;;;
44734;BME280;30462;52.446;-1.930;2023-03-04T03:23:18;101709.3906;;;;
44734;BME280;30462;52.446;-1.930;2023-03-04T03:24:18;101711.4961;;;;
44734;BME280;30462;52.446;-1.930;2023-03-04T03:25:18;101709.8672;;;;
44734;BME280;30462;52.446;-1.930;2023-03-04T03:26:18;101700.6406;;;;
44734;BME280;30462;52.446;-1.930;2023-03-04T03:27:18;101700.1133;;;;
44734;BME280;30462;52.446;-1.930;2023-03-04T03:28:18;101701.0039;;;;
44734;BME280;30462;52.446;-1.930;2023-03-04T03:29:18;101693.2422;;;;
44734;BME280;30462;52.446;-1.930;2023-03-04T03:30:18;101695.6797;;;;
44734;BME280;30462;52.446;-1.930;2023-03-04T03:31:18;101691.6172;;;;
44734;BME280;30462;52.446;-1.930;2023-03-04T03:32:18;101694.7031;;;;
44734;BME280;30462;52.446;-1.930;2023-03-04T03:33:18;101692.3008;;;;
44734;BME280;30462;52.446;-1.930;2023-03-04T03:34:18;101694.7813;;;;
44734;BME280;30462;52.446;-1.930;2023-03-04T03:35:18;101697.5039;;;;
44734;BME280;30462;52.446;-1.930;2023-03-04T03:36:18;101696;;;;
44734;BME280;30462;52.446;-1.930;2023-03-04T03:37:18;101696.9727;;;;
44734;BME280;30462;52.446;-1.930;2023-03-04T03:38:18;101695.7148;;;;
44734;BME280;30462;52.446;-1.930;2023-03-04T03:39:18;101695.1094;;;;
44734;BME280;30462;52.446;-1.930;2023-03-04T03:40:18;101696.4883;;;;
44734;BME280;30462;52.446;-1.930;2023-03-04T03:41:18;101689.625;;;;
44734;BME280;30462;52.446;-1.930;2023-03-04T03:42:18;101687.3906;;;;
44734;BME280;30462;52.446;-1.930;2023-03-04T03:43:18;101686.0078;;;;
44734;BME280;30462;52.446;-1.930;2023-03-04T03:44:18;101684.3828;;;;
44734;BME280;30462;52.446;-1.930;2023-03-04T03:45:18;101688.8555;;;;
44734;BME280;30462;52.446;-1.930;2023-03-04T03:46:18;101689.9531;;;;
44734;BME280;30462;52.446;-1.930;2023-03-04T03:47:18;101691.7422;;;;
44734;BME280;30462;52.446;-1.930;2023-03-04T03:48:18;101692.7148;;;;
44734;BME280;30462;52.446;-1.930;2023-03-04T03:49:18;101690.5273;;;;
44734;BME280;30462;52.446;-1.930;2023-03-04T03:50:18;101691.582;;;;
44734;BME280;30462;52.446;-1.930;2023-03-04T03:51:18;101688.8984;;;;
44734;BME280;30462;52.446;-1.930;2023-03-04T03:52:18;101685.3633;;;;
44734;BME280;30462;52.446;-1.930;2023-03-04T03:53:18;101689.2266;;;;
44734;BME280;30462;52.446;-1.930;2023-03-04T03:54:18;101688.25;;;;
44734;BME280;30462;52.446;-1.930;2023-03-04T03:55:18;101689.1406;;;;
44734;BME280;30462;52.446;-1.930;2023-03-04T03:56:18;101688.2852;;;;
44734;BME280;30462;52.446;-1.930;2023-03-04T03:57:18;101689.4648;;;;
44734;BME280;30462;52.446;-1.930;2023-03-04T03:58:18;101689.832;;;;
44734;BME280;30462;52.446;-1.930;2023-03-04T03:59:18;101688.6172;;;;
44734;BME280;30462;52.446;-1.930;2023-03-04T04:00:18;101688.0469;;;;
44734;BME280;30462;52.446;-1.930;2023-03-04T04:01:18;101688.8164;;;;
44734;BME280;30462;52.446;-1.930;2023-03-04T04:02:17;101686.418;;;;
44734;BME280;30462;52.446;-1.930;2023-03-04T04:03:18;101688.0117;;;;
44734;BME280;30462;52.446;-1.930;2023-03-04T04:04:18;101682.6406;;;;
44734;BME280;30462;52.446;-1.930;2023-03-04T04:05:18;101687.6055;;;;
44734;BME280;30462;52.446;-1.930;2023-03-04T04:06:17;101684.6758;;;;
44734;BME280;30462;52.446;-1.930;2023-03-04T04:07:17;101687.5625;;;;
44734;BME280;30462;52.446;-1.930;2023-03-04T04:08:18;101687.8086;;;;
44734;BME280;30462;52.446;-1.930;2023-03-04T04:09:18;101688.418;;;;
44734;BME280;30462;52.446;-1.930;2023-03-04T04:10:18;101689.1875;;;;
44734;BME280;30462;52.446;-1.930;2023-03-04T04:11:18;101688.5352;;;;
44734;BME280;30462;52.446;-1.930;2023-03-04T04:12:18;101689.3906;;;;
44734;BME280;30462;52.446;-1.930;2023-03-04T04:13:18;101689.6758;;;;
44734;BME280;30462;52.446;-1.930;2023-03-04T04:14:18;101692.2773;;;;
44734;BME280;30462;52.446;-1.930;2023-03-04T04:15:18;101686.1797;;;;
44734;BME280;30462;52.446;-1.930;2023-03-04T04:16:19;101686.543;;;;
44734;BME280;30462;52.446;-1.930;2023-03-04T04:17:18;101689.0234;;;;
44734;BME280;30462;52.446;-1.930;2023-03-04T04:18:19;101687.1953;;;;
44734;BME280;30462;52.446;-1.930;2023-03-04T04:19:18;101686.7109;;;;
44734;BME280;30462;52.446;-1.930;2023-03-04T04:20:18;101688.7031;;;;
44734;BME280;30462;52.446;-1.930;2023-03-04T04:21:18;101691.5508;;;;
44734;BME280;30462;52.446;-1.930;2023-03-04T04:22:19;101688.0156;;;;
44734;BME280;30462;52.446;-1.930;2023-03-04T04:23:18;101692.7656;;;;
44734;BME280;30462;52.446;-1.930;2023-03-04T04:24:18;101687.4844;;;;
44734;BME280;30462;52.446;-1.930;2023-03-04T04:25:18;101689.8789;;;;
44734;BME280;30462;52.446;-1.930;2023-03-04T04:26:18;101690.25;;;;
44734;BME280;30462;52.446;-1.930;2023-03-04T04:27:18;101688.2539;;;;
44734;BME280;30462;52.446;-1.930;2023-03-04T04:28:18;101689.9219;;;;
44734;BME280;30462;52.446;-1.930;2023-03-04T04:29:18;101691.75;;;;
44734;BME280;30462;52.446;-1.930;2023-03-04T04:30:18;101694.8789;;;;
44734;BME280;30462;52.446;-1.930;2023-03-04T04:31:18;101697.2344;;;;
44734;BME280;30462;52.446;-1.930;2023-03-04T04:32:18;101698.207;;;;
44734;BME280;30462;52.446;-1.930;2023-03-04T04:33:18;101699.1797;;;;
44734;BME280;30462;52.446;-1.930;2023-03-04T04:34:18;101698.4414;;;;
44734;BME280;30462;52.446;-1.930;2023-03-04T04:35:18;101700.8438;;;;
44734;BME280;30462;52.446;-1.930;2023-03-04T04:36:18;101700.0273;;;;
44734;BME280;30462;52.446;-1.930;2023-03-04T04:37:18;101703.3594;;;;
44734;BME280;30462;52.446;-1.930;2023-03-04T04:38:18;101703.4453;;;;
44734;BME280;30462;52.446;-1.930;2023-03-04T04:39:18;101706.4102;;;;
44734;BME280;30462;52.446;-1.930;2023-03-04T04:40:18;101709.1719;;;;
44734;BME280;30462;52.446;-1.930;2023-03-04T04:41:20;101708.0273;;;;
44734;BME280;30462;52.446;-1.930;2023-03-04T04:42:17;101709.5;;;;
44734;BME280;30462;52.446;-1.930;2023-03-04T04:43:18;101709.9414;;;;
44734;BME280;30462;52.446;-1.930;2023-03-04T04:44:18;101709.5391;;;;
44734;BME280;30462;52.446;-1.930;2023-03-04T04:45:18;101711.6484;;;;
44734;BME280;30462;52.446;-1.930;2023-03-04T04:46:18;101713.5195;;;;
44734;BME280;30462;52.446;-1.930;2023-03-04T04:47:17;101714.6602;;;;
44734;BME280;30462;52.446;-1.930;2023-03-04T04:48:17;101714.1758;;;;
44734;BME280;30462;52.446;-1.930;2023-03-04T04:49:18;101710.6406;;;;
44734;BME280;30462;52.446;-1.930;2023-03-04T04:50:18;101716;;;;
44734;BME280;30462;52.446;-1.930;2023-03-04T04:51:18;101713.8516;;;;
44734;BME280;30462;52.446;-1.930;2023-03-04T04:52:18;101712.9141;;;;
44734;BME280;30462;52.446;-1.930;2023-03-04T04:53:18;101710.3086;;;;
44734;BME280;30462;52.446;-1.930;2023-03-04T04:54:18;101712.1016;;;;
44734;BME280;30462;52.446;-1.930;2023-03-04T04:55:18;101710.3906;;;;
44734;BME280;30462;52.446;-1.930;2023-03-04T04:56:19;101710.7148;;;;
44734;BME280;30462;52.446;-1.930;2023-03-04T04:57:18;101713.6406;;;;
44734;BME280;30462;52.446;-1.930;2023-03-04T04:58:18;101711.4883;;;;
44734;BME280;30462;52.446;-1.930;2023-03-04T04:59:18;101707.7109;;;;
44734;BME280;30462;52.446;-1.930;2023-03-04T05:00:18;101710.793;;;;
44734;BME280;30462;52.446;-1.930;2023-03-04T05:01:18;101709.6992;;;;
44734;BME280;30462;52.446;-1.930;2023-03-04T05:02:18;101712.625;;;;
44734;BME280;30462;52.446;-1.930;2023-03-04T05:03:18;101713.1953;;;;
44734;BME280;30462;52.446;-1.930;2023-03-04T05:04:18;101711.5313;;;;
44734;BME280;30462;52.446;-1.930;2023-03-04T05:05:18;101711.4922;;;;
44734;BME280;30462;52.446;-1.930;2023-03-04T05:06:18;101715.2695;;;;
44734;BME280;30462;52.446;-1.930;2023-03-04T05:07:18;101712.3086;;;;
44734;BME280;30462;52.446;-1.930;2023-03-04T05:08:18;101713.2031;;;;
44734;BME280;30462;52.446;-1.930;2023-03-04T05:09:18;101713.0781;;;;
44734;BME280;30462;52.446;-1.930;2023-03-04T05:10:18;101719.1328;;;;
44734;BME280;30462;52.446;-1.930;2023-03-04T05:11:18;101718.0781;;;;
44734;BME280;30462;52.446;-1.930;2023-03-04T05:12:18;101716.2422;;;;
44734;BME280;30462;52.446;-1.930;2023-03-04T05:13:18;101714.9883;;;;
44734;BME280;30462;52.446;-1.930;2023-03-04T05:14:18;101714.4609;;;;
44734;BME280;30462;52.446;-1.930;2023-03-04T05:15:18;101717.2266;;;;
44734;BME280;30462;52.446;-1.930;2023-03-04T05:16:18;101713.0391;;;;
44734;BME280;30462;52.446;-1.930;2023-03-04T05:17:18;101717.5586;;;;
44734;BME280;30462;52.446;-1.930;2023-03-04T05:18:19;101718.0859;;;;
44734;BME280;30462;52.446;-1.930;2023-03-04T05:19:18;101717.3125;;;;
44734;BME280;30462;52.446;-1.930;2023-03-04T05:20:18;101719.0117;;;;
44734;BME280;30462;52.446;-1.930;2023-03-04T05:21:18;101720.6055;;;;
44734;BME280;30462;52.446;-1.930;2023-03-04T05:22:18;101720.0352;;;;
44734;BME280;30462;52.446;-1.930;2023-03-04T05:23:17;101721.7031;;;;
44734;BME280;30462;52.446;-1.930;2023-03-04T05:24:18;101723.4531;;;;
44734;BME280;30462;52.446;-1.930;2023-03-04T05:25:18;101718.7734;;;;
44734;BME280;30462;52.446;-1.930;2023-03-04T05:26:18;101721.8984;;;;
44734;BME280;30462;52.446;-1.930;2023-03-04T05:27:18;101722.1094;;;;
44734;BME280;30462;52.446;-1.930;2023-03-04T05:28:18;101720.0742;;;;
44734;BME280;30462;52.446;-1.930;2023-03-04T05:29:18;101720.5977;;;;
44734;BME280;30462;52.446;-1.930;2023-03-04T05:30:18;101721.9453;;;;
44734;BME280;30462;52.446;-1.930;2023-03-04T05:31:18;101719.9844;;;;
44734;BME280;30462;52.446;-1.930;2023-03-04T05:32:18;101718.2344;;;;
44734;BME280;30462;52.446;-1.930;2023-03-04T05:33:18;101720.5039;;;;
44734;BME280;30462;52.446;-1.930;2023-03-04T05:34:17;101720.1836;;;;
44734;BME280;30462;52.446;-1.930;2023-03-04T05:35:18;101721.6484;;;;
44734;BME280;30462;52.446;-1.930;2023-03-04T05:36:18;101718.3984;;;;
44734;BME280;30462;52.446;-1.930;2023-03-04T05:37:18;101722.4219;;;;
44734;BME280;30462;52.446;-1.930;2023-03-04T05:38:18;101720.9219;;;;
44734;BME280;30462;52.446;-1.930;2023-03-04T05:39:18;101720.1484;;;;
44734;BME280;30462;52.446;-1.930;2023-03-04T05:40:18;101719.375;;;;
44734;BME280;30462;52.446;-1.930;2023-03-04T05:41:18;101726.8555;;;;
44734;BME280;30462;52.446;-1.930;2023-03-04T05:42:18;101724.2539;;;;
44734;BME280;30462;52.446;-1.930;2023-03-04T05:43:18;101722.6172;;;;
44734;BME280;30462;52.446;-1.930;2023-03-04T05:44:18;101720.2227;;;;
44734;BME280;30462;52.446;-1.930;2023-03-04T05:45:18;101719.5313;;;;
44734;BME280;30462;52.446;-1.930;2023-03-04T05:46:18;101720.543;;;;
44734;BME280;30462;52.446;-1.930;2023-03-04T05:47:18;101721.6445;;;;
44734;BME280;30462;52.446;-1.930;2023-03-04T05:48:18;101725.1367;;;;
44734;BME280;30462;52.446;-1.930;2023-03-04T05:49:18;101724.3633;;;;
44734;BME280;30462;52.446;-1.930;2023-03-04T05:50:18;101721.9688;;;;
44734;BME280;30462;52.446;-1.930;2023-03-04T05:51:19;101718.8359;;;;
44734;BME280;30462;52.446;-1.930;2023-03-04T05:52:18;101721.8047;;;;